Map

Track Data

SID SEASON NUMBER BASIN SUBBASIN NAME ISO_TIME NATURE LAT LON WMO_WIND WMO_PRES WMO_AGENCY TRACK_TYPE DIST2LAND LANDFALL IFLAG USA_AGENCY USA_ATCF_ID USA_LAT USA_LON USA_RECORD USA_STATUS USA_WIND USA_PRES USA_SSHS USA_R34_NE USA_R34_SE USA_R34_SW USA_R34_NW USA_R50_NE USA_R50_SE USA_R50_SW USA_R50_NW USA_R64_NE USA_R64_SE USA_R64_SW USA_R64_NW USA_POCI USA_ROCI USA_RMW USA_EYE TOKYO_LAT TOKYO_LON TOKYO_GRADE TOKYO_WIND TOKYO_PRES TOKYO_R50_DIR TOKYO_R50_LONG TOKYO_R50_SHORT TOKYO_R30_DIR TOKYO_R30_LONG TOKYO_R30_SHORT TOKYO_LAND CMA_LAT CMA_LON CMA_CAT CMA_WIND CMA_PRES HKO_LAT HKO_LON HKO_CAT HKO_WIND HKO_PRES NEWDELHI_LAT NEWDELHI_LON NEWDELHI_GRADE NEWDELHI_WIND NEWDELHI_PRES NEWDELHI_CI NEWDELHI_DP NEWDELHI_POCI REUNION_LAT REUNION_LON REUNION_TYPE REUNION_WIND REUNION_PRES REUNION_TNUM REUNION_CI REUNION_RMW REUNION_R34_NE REUNION_R34_SE REUNION_R34_SW REUNION_R34_NW REUNION_R50_NE REUNION_R50_SE REUNION_R50_SW REUNION_R50_NW REUNION_R64_NE REUNION_R64_SE REUNION_R64_SW REUNION_R64_NW BOM_LAT BOM_LON BOM_TYPE BOM_WIND BOM_PRES BOM_TNUM BOM_CI BOM_RMW BOM_R34_NE BOM_R34_SE BOM_R34_SW BOM_R34_NW BOM_R50_NE BOM_R50_SE BOM_R50_SW BOM_R50_NW BOM_R64_NE BOM_R64_SE BOM_R64_SW BOM_R64_NW BOM_ROCI BOM_POCI BOM_EYE BOM_POS_METHOD BOM_PRES_METHOD NADI_LAT NADI_LON NADI_CAT NADI_WIND NADI_PRES WELLINGTON_LAT WELLINGTON_LON WELLINGTON_WIND WELLINGTON_PRES DS824_LAT DS824_LON DS824_STAGE DS824_WIND DS824_PRES TD9636_LAT TD9636_LON TD9636_STAGE TD9636_WIND TD9636_PRES TD9635_LAT TD9635_LON TD9635_WIND TD9635_PRES TD9635_ROCI NEUMANN_LAT NEUMANN_LON NEUMANN_CLASS NEUMANN_WIND NEUMANN_PRES MLC_LAT MLC_LON MLC_CLASS MLC_WIND MLC_PRES USA_GUST BOM_GUST BOM_GUST_PER REUNION_GUST REUNION_GUST_PER USA_SEAHGT USA_SEARAD_NE USA_SEARAD_SE USA_SEARAD_SW USA_SEARAD_NW STORM_SPEED STORM_DIR
1932325N08142 1932 74 WP MM NOT_NAMED 1932-11-19 22:00:00 NR 8.00000 142.200 main 1163 1147 __________O___ -1 8.00000 142.200 7 11 263
1932325N08142 1932 74 WP MM NOT_NAMED 1932-11-20 00:00:00 NR 7.95896 141.841 main 1147 1118 __________P___ -1 7.95896 141.841 7 11 263
1932325N08142 1932 74 WP MM NOT_NAMED 1932-11-20 03:00:00 NR 7.89376 141.299 main 1118 1092 __________P___ -1 7.89376 141.299 7 11 263
1932325N08142 1932 74 WP MM NOT_NAMED 1932-11-20 06:00:00 NR 7.81998 140.751 main 1092 1065 __________P___ -1 7.81998 140.751 7 11 262
1932325N08142 1932 74 WP MM NOT_NAMED 1932-11-20 09:00:00 NR 7.73284 140.190 main 1065 1055 __________P___ -1 7.73284 140.190 7 11 261
1932325N08142 1932 74 WP MM NOT_NAMED 1932-11-20 10:00:00 NR 7.70000 140.000 main 1055 1027 __________O___ -1 7.70000 140.000 7 12 260
1932325N08142 1932 74 WP MM NOT_NAMED 1932-11-20 12:00:00 NR 7.62809 139.615 main 1027 991 __________P___ -1 7.62809 139.615 7 12 259
1932325N08142 1932 74 WP MM NOT_NAMED 1932-11-20 15:00:00 NR 7.50766 139.037 main 991 963 __________P___ -1 7.50766 139.037 7 12 257
1932325N08142 1932 74 WP MM NOT_NAMED 1932-11-20 18:00:00 NR 7.37760 138.478 main 963 924 __________P___ -1 7.37760 138.478 7 11 256
1932325N08142 1932 74 WP MM NOT_NAMED 1932-11-20 21:00:00 NR 7.24415 137.960 main 924 918 __________P___ -1 7.24415 137.960 7 10 255
1932325N08142 1932 74 WP MM NOT_NAMED 1932-11-20 22:00:00 NR 7.20000 137.800 main 918 899 __________O___ -1 7.20000 137.800 7 9 254
1932325N08142 1932 74 WP MM NOT_NAMED 1932-11-21 00:00:00 NR 7.11635 137.521 main 899 878 __________P___ -1 7.11635 137.521 7 8 252
1932325N08142 1932 74 WP MM NOT_NAMED 1932-11-21 03:00:00 NR 6.99112 137.146 main 878 862 __________P___ -1 6.99112 137.146 7 8 251
1932325N08142 1932 74 WP MM NOT_NAMED 1932-11-21 06:00:00 NR 6.86619 136.794 main 862 833 __________P___ -1 6.86619 136.794 7 8 251
1932325N08142 1932 74 WP MM NOT_NAMED 1932-11-21 09:00:00 NR 6.74153 136.430 main 833 832 __________P___ -1 6.74153 136.430 7 8 251
1932325N08142 1932 74 WP MM NOT_NAMED 1932-11-21 10:00:00 NR 6.70000 136.300 main 832 819 __________O___ -1 6.70000 136.300 7 9 254
1932325N08142 1932 74 WP MM NOT_NAMED 1932-11-21 12:00:00 NR 6.61416 135.985 main 819 806 __________P___ -1 6.61416 135.985 7 10 255
1932325N08142 1932 74 WP MM NOT_NAMED 1932-11-21 15:00:00 NR 6.48530 135.487 main 806 793 __________P___ -1 6.48530 135.487 7 10 256
1932325N08142 1932 74 WP MM NOT_NAMED 1932-11-21 18:00:00 NR 6.35899 134.992 main 793 758 __________P___ -1 6.35899 134.992 7 10 255
1932325N08142 1932 74 WP MM NOT_NAMED 1932-11-21 21:00:00 NR 6.23838 134.536 main 758 755 __________P___ -1 6.23838 134.536 7 9 255
1932325N08142 1932 74 WP MM NOT_NAMED 1932-11-21 22:00:00 NR 6.20000 134.400 main 755 731 __________O___ -1 6.20000 134.400 7 7 252
1932325N08142 1932 74 WP MM NOT_NAMED 1932-11-22 00:00:00 NR 6.12478 134.182 main 731 697 __________P___ -1 6.12478 134.182 7 6 250
1932325N08142 1932 74 WP MM NOT_NAMED 1932-11-22 03:00:00 NR 6.01838 133.905 main 697 673 __________P___ -1 6.01838 133.905 7 6 249
1932325N08142 1932 74 WP MM NOT_NAMED 1932-11-22 06:00:00 NR 5.91968 133.655 main 673 639 __________P___ -1 5.91968 133.655 7 5 249
1932325N08142 1932 74 WP MM NOT_NAMED 1932-11-22 09:00:00 NR 5.82866 133.395 main 639 630 __________P___ -1 5.82866 133.395 7 6 251
1932325N08142 1932 74 WP MM NOT_NAMED 1932-11-22 10:00:00 NR 5.80000 133.300 main 630 605 __________O___ -1 5.80000 133.300 7 6 255
1932325N08142 1932 74 WP MM NOT_NAMED 1932-11-22 12:00:00 NR 5.74509 133.091 main 605 570 __________P___ -1 5.74509 133.091 7 7 257
1932325N08142 1932 74 WP MM NOT_NAMED 1932-11-22 15:00:00 NR 5.66768 132.736 main 570 529 __________P___ -1 5.66768 132.736 7 8 258
1932325N08142 1932 74 WP MM NOT_NAMED 1932-11-22 18:00:00 NR 5.59445 132.347 main 529 489 __________P___ -1 5.59445 132.347 7 8 260
1932325N08142 1932 74 WP MM NOT_NAMED 1932-11-22 21:00:00 NR 5.52349 131.938 main 489 481 __________P___ -1 5.52349 131.938 7 8 260
1932325N08142 1932 74 WP MM NOT_NAMED 1932-11-22 22:00:00 NR 5.50000 131.800 main 481 __________O___ -1 5.50000 131.800 7 8 260

Digital Typhoon Data and Search

About IBTrACS Database

This database is a web-friendly format of International Best Track Archive for Climate Stewardship (IBTrACS), a global best track data archive curated by NOAA dating back to 1842.

Updated: 2021-11-26